sensor_id;sensor_type;location;lat;lon;timestamp;temperature;humidity
25108;DHT22;13090;53.422;7.670;2022-10-16T00:00:00;15.60;86.80
25108;DHT22;13090;53.422;7.670;2022-10-16T00:05:08;15.60;86.70
25108;DHT22;13090;53.422;7.670;2022-10-16T00:10:10;15.60;86.60
25108;DHT22;13090;53.422;7.670;2022-10-16T00:15:22;15.60;86.70
25108;DHT22;13090;53.422;7.670;2022-10-16T00:20:26;15.70;86.70
25108;DHT22;13090;53.422;7.670;2022-10-16T00:25:32;15.70;86.60
25108;DHT22;13090;53.422;7.670;2022-10-16T00:30:38;15.70;86.40
25108;DHT22;13090;53.422;7.670;2022-10-16T00:35:54;15.60;86.30
25108;DHT22;13090;53.422;7.670;2022-10-16T00:41:00;15.60;86.10
25108;DHT22;13090;53.422;7.670;2022-10-16T00:46:10;15.60;86.10
25108;DHT22;13090;53.422;7.670;2022-10-16T00:51:20;15.60;86.10
25108;DHT22;13090;53.422;7.670;2022-10-16T00:56:25;15.50;86.10
25108;DHT22;13090;53.422;7.670;2022-10-16T01:01:28;15.50;86.20
25108;DHT22;13090;53.422;7.670;2022-10-16T01:06:40;15.40;86.20
25108;DHT22;13090;53.422;7.670;2022-10-16T01:11:52;15.40;86.40
25108;DHT22;13090;53.422;7.670;2022-10-16T01:17:06;15.30;86.50
25108;DHT22;13090;53.422;7.670;2022-10-16T01:22:16;15.30;86.60
25108;DHT22;13090;53.422;7.670;2022-10-16T01:27:23;15.30;86.70
25108;DHT22;13090;53.422;7.670;2022-10-16T01:32:36;15.20;86.80
25108;DHT22;13090;53.422;7.670;2022-10-16T01:37:43;15.20;86.80
25108;DHT22;13090;53.422;7.670;2022-10-16T01:42:54;15.10;86.80
25108;DHT22;13090;53.422;7.670;2022-10-16T01:48:03;15.00;86.90
25108;DHT22;13090;53.422;7.670;2022-10-16T01:53:13;15.00;87.10
25108;DHT22;13090;53.422;7.670;2022-10-16T01:58:23;14.90;87.10
25108;DHT22;13090;53.422;7.670;2022-10-16T02:03:27;14.90;87.20
25108;DHT22;13090;53.422;7.670;2022-10-16T02:08:31;14.90;87.40
25108;DHT22;13090;53.422;7.670;2022-10-16T02:13:38;14.90;87.50
25108;DHT22;13090;53.422;7.670;2022-10-16T02:18:44;14.80;87.60
25108;DHT22;13090;53.422;7.670;2022-10-16T02:23:58;14.90;87.60
25108;DHT22;13090;53.422;7.670;2022-10-16T02:29:12;14.90;87.60
25108;DHT22;13090;53.422;7.670;2022-10-16T02:34:23;14.90;87.70
25108;DHT22;13090;53.422;7.670;2022-10-16T02:39:29;15.00;87.80
25108;DHT22;13090;53.422;7.670;2022-10-16T02:44:33;15.00;87.70
25108;DHT22;13090;53.422;7.670;2022-10-16T02:49:38;15.10;87.70
25108;DHT22;13090;53.422;7.670;2022-10-16T02:54:41;15.10;87.60
25108;DHT22;13090;53.422;7.670;2022-10-16T02:59:54;15.10;87.60
25108;DHT22;13090;53.422;7.670;2022-10-16T03:04:56;15.20;87.50
25108;DHT22;13090;53.422;7.670;2022-10-16T03:09:59;15.20;87.30
25108;DHT22;13090;53.422;7.670;2022-10-16T03:15:14;15.20;87.30
25108;DHT22;13090;53.422;7.670;2022-10-16T03:20:52;15.20;87.20
25108;DHT22;13090;53.422;7.670;2022-10-16T03:25:58;15.20;87.10
25108;DHT22;13090;53.422;7.670;2022-10-16T03:31:40;15.20;87.10
25108;DHT22;13090;53.422;7.670;2022-10-16T03:37:03;15.20;87.00
25108;DHT22;13090;53.422;7.670;2022-10-16T03:42:15;15.20;87.10
25108;DHT22;13090;53.422;7.670;2022-10-16T03:47:20;15.20;87.10
25108;DHT22;13090;53.422;7.670;2022-10-16T03:52:31;15.30;87.10
25108;DHT22;13090;53.422;7.670;2022-10-16T03:57:36;15.30;87.00
25108;DHT22;13090;53.422;7.670;2022-10-16T04:02:48;15.30;86.90
25108;DHT22;13090;53.422;7.670;2022-10-16T04:08:01;15.30;86.70
25108;DHT22;13090;53.422;7.670;2022-10-16T04:13:10;15.30;86.80
25108;DHT22;13090;53.422;7.670;2022-10-16T04:18:17;15.40;86.90
25108;DHT22;13090;53.422;7.670;2022-10-16T04:23:20;15.40;86.80
25108;DHT22;13090;53.422;7.670;2022-10-16T04:28:22;15.40;86.80
25108;DHT22;13090;53.422;7.670;2022-10-16T04:33:27;15.40;86.80
25108;DHT22;13090;53.422;7.670;2022-10-16T04:38:30;15.50;86.80
25108;DHT22;13090;53.422;7.670;2022-10-16T04:43:39;15.50;86.80
25108;DHT22;13090;53.422;7.670;2022-10-16T04:48:49;15.40;86.70
25108;DHT22;13090;53.422;7.670;2022-10-16T04:53:53;15.40;86.70
25108;DHT22;13090;53.422;7.670;2022-10-16T04:58:56;15.40;86.70
25108;DHT22;13090;53.422;7.670;2022-10-16T05:04:00;15.40;86.60
25108;DHT22;13090;53.422;7.670;2022-10-16T05:09:05;15.30;86.60
25108;DHT22;13090;53.422;7.670;2022-10-16T05:14:13;15.20;87.40
25108;DHT22;13090;53.422;7.670;2022-10-16T05:19:34;15.20;86.60
25108;DHT22;13090;53.422;7.670;2022-10-16T05:24:46;15.20;86.70
25108;DHT22;13090;53.422;7.670;2022-10-16T05:29:56;15.10;86.90
25108;DHT22;13090;53.422;7.670;2022-10-16T05:35:07;15.10;87.10
25108;DHT22;13090;53.422;7.670;2022-10-16T05:40:15;15.10;87.20
25108;DHT22;13090;53.422;7.670;2022-10-16T05:45:26;15.10;87.20
25108;DHT22;13090;53.422;7.670;2022-10-16T05:50:37;15.10;87.20
25108;DHT22;13090;53.422;7.670;2022-10-16T05:55:51;15.10;87.20
25108;DHT22;13090;53.422;7.670;2022-10-16T06:01:13;15.10;87.30
25108;DHT22;13090;53.422;7.670;2022-10-16T06:06:30;15.10;87.50
25108;DHT22;13090;53.422;7.670;2022-10-16T06:11:34;15.20;87.70
25108;DHT22;13090;53.422;7.670;2022-10-16T06:16:44;15.20;87.70
25108;DHT22;13090;53.422;7.670;2022-10-16T06:22:03;15.20;87.80
25108;DHT22;13090;53.422;7.670;2022-10-16T06:27:06;15.20;87.90
25108;DHT22;13090;53.422;7.670;2022-10-16T06:37:39;15.30;87.90
25108;DHT22;13090;53.422;7.670;2022-10-16T06:42:48;15.40;88.20
25108;DHT22;13090;53.422;7.670;2022-10-16T06:48:01;15.50;88.10
25108;DHT22;13090;53.422;7.670;2022-10-16T06:53:06;15.60;88.70
25108;DHT22;13090;53.422;7.670;2022-10-16T06:58:29;15.80;88.60
25108;DHT22;13090;53.422;7.670;2022-10-16T07:03:47;16.10;88.20
25108;DHT22;13090;53.422;7.670;2022-10-16T07:09:04;16.30;87.30
25108;DHT22;13090;53.422;7.670;2022-10-16T07:14:23;16.30;87.70
25108;DHT22;13090;53.422;7.670;2022-10-16T07:19:27;16.30;87.30
25108;DHT22;13090;53.422;7.670;2022-10-16T07:24:42;16.60;89.10
25108;DHT22;13090;53.422;7.670;2022-10-16T07:29:46;17.20;87.70
25108;DHT22;13090;53.422;7.670;2022-10-16T07:34:53;17.70;87.80
25108;DHT22;13090;53.422;7.670;2022-10-16T07:39:59;18.30;87.00
25108;DHT22;13090;53.422;7.670;2022-10-16T07:45:17;18.60;84.30
25108;DHT22;13090;53.422;7.670;2022-10-16T07:50:46;18.50;82.50
25108;DHT22;13090;53.422;7.670;2022-10-16T07:55:57;18.20;82.20
25108;DHT22;13090;53.422;7.670;2022-10-16T08:01:10;17.90;82.40
25108;DHT22;13090;53.422;7.670;2022-10-16T08:06:34;17.70;83.10
25108;DHT22;13090;53.422;7.670;2022-10-16T08:11:38;17.60;83.30
25108;DHT22;13090;53.422;7.670;2022-10-16T08:16:41;17.60;84.00
25108;DHT22;13090;53.422;7.670;2022-10-16T08:21:47;18.00;85.30
25108;DHT22;13090;53.422;7.670;2022-10-16T08:26:53;18.70;85.00
25108;DHT22;13090;53.422;7.670;2022-10-16T08:31:56;19.40;82.20
25108;DHT22;13090;53.422;7.670;2022-10-16T08:36:58;19.60;79.60
25108;DHT22;13090;53.422;7.670;2022-10-16T08:42:39;19.50;78.40
25108;DHT22;13090;53.422;7.670;2022-10-16T08:53:22;20.00;79.60
25108;DHT22;13090;53.422;7.670;2022-10-16T08:58:29;20.70;78.50
25108;DHT22;13090;53.422;7.670;2022-10-16T09:03:53;21.30;77.40
25108;DHT22;13090;53.422;7.670;2022-10-16T09:09:08;21.70;74.30
25108;DHT22;13090;53.422;7.670;2022-10-16T09:14:35;22.10;71.90
25108;DHT22;13090;53.422;7.670;2022-10-16T09:19:46;22.30;70.60
25108;DHT22;13090;53.422;7.670;2022-10-16T09:24:51;22.20;70.20
25108;DHT22;13090;53.422;7.670;2022-10-16T09:29:56;21.90;70.30
25108;DHT22;13090;53.422;7.670;2022-10-16T09:35:02;22.00;71.40
25108;DHT22;13090;53.422;7.670;2022-10-16T09:40:11;22.20;70.40
25108;DHT22;13090;53.422;7.670;2022-10-16T09:45:24;22.30;69.40
25108;DHT22;13090;53.422;7.670;2022-10-16T09:50:28;22.50;69.60
25108;DHT22;13090;53.422;7.670;2022-10-16T09:55:30;22.80;69.50
25108;DHT22;13090;53.422;7.670;2022-10-16T10:00:35;23.10;67.40
25108;DHT22;13090;53.422;7.670;2022-10-16T10:05:39;23.00;67.30
25108;DHT22;13090;53.422;7.670;2022-10-16T10:10:43;22.90;67.60
25108;DHT22;13090;53.422;7.670;2022-10-16T10:15:47;22.90;67.50
25108;DHT22;13090;53.422;7.670;2022-10-16T10:21:01;22.80;67.50
25108;DHT22;13090;53.422;7.670;2022-10-16T10:26:29;22.60;66.40
25108;DHT22;13090;53.422;7.670;2022-10-16T10:31:51;22.50;67.30
25108;DHT22;13090;53.422;7.670;2022-10-16T10:37:04;22.40;66.90
25108;DHT22;13090;53.422;7.670;2022-10-16T10:42:25;22.50;68.10
25108;DHT22;13090;53.422;7.670;2022-10-16T10:47:42;22.80;67.00
25108;DHT22;13090;53.422;7.670;2022-10-16T10:53:04;22.80;67.50
25108;DHT22;13090;53.422;7.670;2022-10-16T10:58:29;22.60;65.40
25108;DHT22;13090;53.422;7.670;2022-10-16T11:09:23;22.30;66.10
25108;DHT22;13090;53.422;7.670;2022-10-16T11:14:36;22.40;67.40
25108;DHT22;13090;53.422;7.670;2022-10-16T11:19:46;22.70;67.80
25108;DHT22;13090;53.422;7.670;2022-10-16T11:25:13;23.10;67.40
25108;DHT22;13090;53.422;7.670;2022-10-16T11:30:22;23.40;65.30
25108;DHT22;13090;53.422;7.670;2022-10-16T11:35:39;23.80;65.80
25108;DHT22;13090;53.422;7.670;2022-10-16T11:41:32;24.20;62.10
25108;DHT22;13090;53.422;7.670;2022-10-16T11:46:39;24.30;60.40
25108;DHT22;13090;53.422;7.670;2022-10-16T11:52:28;24.20;59.90
25108;DHT22;13090;53.422;7.670;2022-10-16T11:57:58;23.90;59.10
25108;DHT22;13090;53.422;7.670;2022-10-16T12:03:12;23.50;58.90
25108;DHT22;13090;53.422;7.670;2022-10-16T12:08:27;23.20;59.60
25108;DHT22;13090;53.422;7.670;2022-10-16T12:13:36;23.20;60.90
25108;DHT22;13090;53.422;7.670;2022-10-16T12:18:46;23.50;61.70
25108;DHT22;13090;53.422;7.670;2022-10-16T12:24:06;23.90;60.90
25108;DHT22;13090;53.422;7.670;2022-10-16T12:29:39;24.30;59.10
25108;DHT22;13090;53.422;7.670;2022-10-16T12:35:19;24.50;57.40
25108;DHT22;13090;53.422;7.670;2022-10-16T12:40:40;24.70;57.90
25108;DHT22;13090;53.422;7.670;2022-10-16T12:45:44;24.80;56.50
25108;DHT22;13090;53.422;7.670;2022-10-16T12:50:46;24.70;58.40
25108;DHT22;13090;53.422;7.670;2022-10-16T12:56:01;24.80;57.20
25108;DHT22;13090;53.422;7.670;2022-10-16T13:01:07;24.90;55.10
25108;DHT22;13090;53.422;7.670;2022-10-16T13:06:30;24.80;58.80
25108;DHT22;13090;53.422;7.670;2022-10-16T13:11:58;24.70;56.30
25108;DHT22;13090;53.422;7.670;2022-10-16T13:17:11;24.50;55.40
25108;DHT22;13090;53.422;7.670;2022-10-16T13:22:40;24.20;56.30
25108;DHT22;13090;53.422;7.670;2022-10-16T13:27:51;24.00;56.10
25108;DHT22;13090;53.422;7.670;2022-10-16T13:33:01;23.90;55.90
25108;DHT22;13090;53.422;7.670;2022-10-16T13:38:15;23.80;56.10
25108;DHT22;13090;53.422;7.670;2022-10-16T13:43:21;23.70;56.00
25108;DHT22;13090;53.422;7.670;2022-10-16T13:48:28;23.50;55.90
25108;DHT22;13090;53.422;7.670;2022-10-16T13:53:35;23.30;56.00
25108;DHT22;13090;53.422;7.670;2022-10-16T13:58:42;23.20;56.20
25108;DHT22;13090;53.422;7.670;2022-10-16T14:03:48;23.10;56.50
25108;DHT22;13090;53.422;7.670;2022-10-16T14:08:58;23.10;57.20
25108;DHT22;13090;53.422;7.670;2022-10-16T14:14:03;22.90;57.40
25108;DHT22;13090;53.422;7.670;2022-10-16T14:19:19;22.80;57.30
25108;DHT22;13090;53.422;7.670;2022-10-16T14:24:33;22.80;57.80
25108;DHT22;13090;53.422;7.670;2022-10-16T14:29:38;22.80;57.70
25108;DHT22;13090;53.422;7.670;2022-10-16T14:34:52;22.70;57.70
25108;DHT22;13090;53.422;7.670;2022-10-16T14:39:57;22.70;58.00
25108;DHT22;13090;53.422;7.670;2022-10-16T14:45:09;22.60;58.60
25108;DHT22;13090;53.422;7.670;2022-10-16T14:50:12;22.60;58.00
25108;DHT22;13090;53.422;7.670;2022-10-16T14:55:26;22.50;58.20
25108;DHT22;13090;53.422;7.670;2022-10-16T15:00:31;22.30;58.00
25108;DHT22;13090;53.422;7.670;2022-10-16T15:05:36;22.10;58.20
25108;DHT22;13090;53.422;7.670;2022-10-16T15:10:45;22.00;58.20
25108;DHT22;13090;53.422;7.670;2022-10-16T15:16:10;21.80;58.70
25108;DHT22;13090;53.422;7.670;2022-10-16T15:21:28;21.70;58.70
25108;DHT22;13090;53.422;7.670;2022-10-16T15:26:31;21.50;58.90
25108;DHT22;13090;53.422;7.670;2022-10-16T15:31:38;21.40;59.50
25108;DHT22;13090;53.422;7.670;2022-10-16T15:36:47;21.20;59.60
25108;DHT22;13090;53.422;7.670;2022-10-16T15:41:53;21.10;59.90
25108;DHT22;13090;53.422;7.670;2022-10-16T15:46:59;20.90;60.20
25108;DHT22;13090;53.422;7.670;2022-10-16T15:52:05;20.70;60.50
25108;DHT22;13090;53.422;7.670;2022-10-16T15:57:13;20.50;60.90
25108;DHT22;13090;53.422;7.670;2022-10-16T16:02:22;20.30;61.30
25108;DHT22;13090;53.422;7.670;2022-10-16T16:07:32;20.20;61.60
25108;DHT22;13090;53.422;7.670;2022-10-16T16:12:36;20.00;61.80
25108;DHT22;13090;53.422;7.670;2022-10-16T16:17:41;19.80;62.30
25108;DHT22;13090;53.422;7.670;2022-10-16T16:22:43;19.70;62.70
25108;DHT22;13090;53.422;7.670;2022-10-16T16:27:46;19.50;63.10
25108;DHT22;13090;53.422;7.670;2022-10-16T16:32:56;19.40;63.50
25108;DHT22;13090;53.422;7.670;2022-10-16T16:37:59;19.20;63.60
25108;DHT22;13090;53.422;7.670;2022-10-16T16:43:11;19.00;63.70
25108;DHT22;13090;53.422;7.670;2022-10-16T16:48:16;18.90;64.30
25108;DHT22;13090;53.422;7.670;2022-10-16T16:59:13;18.60;65.30
25108;DHT22;13090;53.422;7.670;2022-10-16T17:04:19;18.40;64.80
25108;DHT22;13090;53.422;7.670;2022-10-16T17:09:22;18.30;65.30
25108;DHT22;13090;53.422;7.670;2022-10-16T17:14:26;18.10;65.50
25108;DHT22;13090;53.422;7.670;2022-10-16T17:19:30;17.90;65.70
25108;DHT22;13090;53.422;7.670;2022-10-16T17:24:34;17.80;66.30
25108;DHT22;13090;53.422;7.670;2022-10-16T17:29:41;17.50;66.60
25108;DHT22;13090;53.422;7.670;2022-10-16T17:34:47;17.30;67.20
25108;DHT22;13090;53.422;7.670;2022-10-16T17:39:51;17.10;67.70
25108;DHT22;13090;53.422;7.670;2022-10-16T17:45:00;17.00;67.80
25108;DHT22;13090;53.422;7.670;2022-10-16T17:50:08;16.90;68.00
25108;DHT22;13090;53.422;7.670;2022-10-16T17:55:17;16.70;68.60
25108;DHT22;13090;53.422;7.670;2022-10-16T18:00:30;16.40;68.50
25108;DHT22;13090;53.422;7.670;2022-10-16T18:11:35;15.90;70.80
25108;DHT22;13090;53.422;7.670;2022-10-16T18:16:45;15.80;70.50
25108;DHT22;13090;53.422;7.670;2022-10-16T18:22:08;15.60;71.40
25108;DHT22;13090;53.422;7.670;2022-10-16T18:27:18;15.40;72.00
25108;DHT22;13090;53.422;7.670;2022-10-16T18:32:22;15.30;71.60
25108;DHT22;13090;53.422;7.670;2022-10-16T18:37:28;15.30;71.40
25108;DHT22;13090;53.422;7.670;2022-10-16T18:42:54;15.30;71.80
25108;DHT22;13090;53.422;7.670;2022-10-16T18:48:00;15.20;73.10
25108;DHT22;13090;53.422;7.670;2022-10-16T18:53:06;15.10;72.10
25108;DHT22;13090;53.422;7.670;2022-10-16T18:58:13;15.00;72.40
25108;DHT22;13090;53.422;7.670;2022-10-16T19:03:20;15.00;72.70
25108;DHT22;13090;53.422;7.670;2022-10-16T19:08:29;15.00;72.50
25108;DHT22;13090;53.422;7.670;2022-10-16T19:13:38;15.10;72.80
25108;DHT22;13090;53.422;7.670;2022-10-16T19:18:42;15.00;72.70
25108;DHT22;13090;53.422;7.670;2022-10-16T19:23:51;14.80;72.80
25108;DHT22;13090;53.422;7.670;2022-10-16T19:29:04;14.70;73.30
25108;DHT22;13090;53.422;7.670;2022-10-16T19:34:10;14.60;73.60
25108;DHT22;13090;53.422;7.670;2022-10-16T19:39:15;14.50;73.80
25108;DHT22;13090;53.422;7.670;2022-10-16T19:44:19;14.60;74.00
25108;DHT22;13090;53.422;7.670;2022-10-16T19:49:22;14.60;74.00
25108;DHT22;13090;53.422;7.670;2022-10-16T19:54:26;14.70;73.90
25108;DHT22;13090;53.422;7.670;2022-10-16T19:59:31;14.60;74.10
25108;DHT22;13090;53.422;7.670;2022-10-16T20:04:34;14.50;75.30
25108;DHT22;13090;53.422;7.670;2022-10-16T20:09:40;14.40;75.30
25108;DHT22;13090;53.422;7.670;2022-10-16T20:14:44;14.30;76.60
25108;DHT22;13090;53.422;7.670;2022-10-16T20:19:47;14.30;75.60
25108;DHT22;13090;53.422;7.670;2022-10-16T20:24:51;14.30;75.60
25108;DHT22;13090;53.422;7.670;2022-10-16T20:29:55;14.40;75.70
25108;DHT22;13090;53.422;7.670;2022-10-16T20:34:58;14.50;75.70
25108;DHT22;13090;53.422;7.670;2022-10-16T20:40:05;14.60;75.40
25108;DHT22;13090;53.422;7.670;2022-10-16T20:45:15;14.70;75.20
25108;DHT22;13090;53.422;7.670;2022-10-16T20:50:19;14.80;75.50
25108;DHT22;13090;53.422;7.670;2022-10-16T20:55:22;14.90;75.20
25108;DHT22;13090;53.422;7.670;2022-10-16T21:00:27;14.90;75.20
25108;DHT22;13090;53.422;7.670;2022-10-16T21:05:33;15.00;75.30
25108;DHT22;13090;53.422;7.670;2022-10-16T21:10:42;14.90;75.80
25108;DHT22;13090;53.422;7.670;2022-10-16T21:15:46;14.80;75.70
25108;DHT22;13090;53.422;7.670;2022-10-16T21:20:49;14.60;76.10
25108;DHT22;13090;53.422;7.670;2022-10-16T21:25:52;14.60;76.20
25108;DHT22;13090;53.422;7.670;2022-10-16T21:30:56;14.50;76.20
25108;DHT22;13090;53.422;7.670;2022-10-16T21:35:59;14.40;77.50
25108;DHT22;13090;53.422;7.670;2022-10-16T21:41:11;14.40;77.50
25108;DHT22;13090;53.422;7.670;2022-10-16T21:46:19;14.30;77.60
25108;DHT22;13090;53.422;7.670;2022-10-16T21:51:26;14.30;77.60
25108;DHT22;13090;53.422;7.670;2022-10-16T21:56:29;14.30;77.80
25108;DHT22;13090;53.422;7.670;2022-10-16T22:01:38;14.40;78.10
25108;DHT22;13090;53.422;7.670;2022-10-16T22:06:44;14.40;78.20
25108;DHT22;13090;53.422;7.670;2022-10-16T22:11:47;14.40;80.10
25108;DHT22;13090;53.422;7.670;2022-10-16T22:16:51;14.50;78.50
25108;DHT22;13090;53.422;7.670;2022-10-16T22:21:53;14.50;78.70
25108;DHT22;13090;53.422;7.670;2022-10-16T22:26:56;14.50;78.30
25108;DHT22;13090;53.422;7.670;2022-10-16T22:32:00;14.60;78.40
25108;DHT22;13090;53.422;7.670;2022-10-16T22:37:03;14.60;79.00
25108;DHT22;13090;53.422;7.670;2022-10-16T22:42:05;14.60;79.30
25108;DHT22;13090;53.422;7.670;2022-10-16T22:47:12;14.60;78.70
25108;DHT22;13090;53.422;7.670;2022-10-16T22:52:15;14.70;78.70
25108;DHT22;13090;53.422;7.670;2022-10-16T22:57:18;14.70;78.70
25108;DHT22;13090;53.422;7.670;2022-10-16T23:02:22;14.80;78.90
25108;DHT22;13090;53.422;7.670;2022-10-16T23:07:24;14.90;78.70
25108;DHT22;13090;53.422;7.670;2022-10-16T23:12:27;14.90;78.30
25108;DHT22;13090;53.422;7.670;2022-10-16T23:17:31;14.90;78.00
25108;DHT22;13090;53.422;7.670;2022-10-16T23:22:33;15.00;78.00
25108;DHT22;13090;53.422;7.670;2022-10-16T23:27:36;15.00;78.00
25108;DHT22;13090;53.422;7.670;2022-10-16T23:32:41;15.10;77.80
25108;DHT22;13090;53.422;7.670;2022-10-16T23:37:44;15.10;78.20
25108;DHT22;13090;53.422;7.670;2022-10-16T23:42:46;15.10;78.20
25108;DHT22;13090;53.422;7.670;2022-10-16T23:47:50;15.10;79.30
25108;DHT22;13090;53.422;7.670;2022-10-16T23:52:53;15.10;78.70
25108;DHT22;13090;53.422;7.670;2022-10-16T23:57:55;15.00;79.00
